Vancouver International Airport

CYVR · 不列颠哥伦比亚, 加拿大

罗盘
风向 的 风向 100° 溫哥華國際機場 8L/26R
风: 8 kt, 3 beaufort

8 kt

改变
0 2.000 4.000 6.000 8.000 10.000
FEW 1.800 ft
FEW 7.000 ft
SPECI CYVR 040500Z 10008KT 15SM FEW018 FEW070 M02/M05 A3020 RMK SC1AC1 SC TR AC TR SLP228

METAR 溫哥華國際機場 - CYVR/YVR

溫哥華國際機場是,加拿大中的大型机场。 该机场有3条跑道: 8L/26R, 8R/26L 和 13/31. 该领域的国际民航组织标志是CYVR 它的国际航空运输协会代码是YVR.

这份报告是针对2022年12月3日 21:00, 当地时间在溫哥華國際機場进行的。

机场观察

风向为100°,速度为8 kt。

可见度为15 mi。

有几云在1.800 ft的高度 和 几云在7.000 ft的高度。 没有观察到天花板。

温度为-2 °C,阵风为-9 °C。 露点为-5 °C,相对湿度为80%。 海平面上的气压为30,20 inHg (QNH)。

白天

今天,太阳从07:50升起,在16:15降落。 这适用于溫哥華國際機場,世界夏令时可能有所不同。 当地时间与世界标准时间之间的时差为-8 小时。 当前,没有夏令时有效。

公司介绍

我们没有关于这个机场的公司信息。

体会

到Vliegles.nl去找飞行课程,跳伞和其他飞行体验。 浏览页面,了解溫哥華國際機場附近所有可用的活动。 你也可以使用搜索功能来寻找你所在地附近的特定飞行课程、跳伞或其他飞行体验。

跑道

Id 标题 侧风 逆风 侧风 %
8L/26R 100°-280° 8 kt 0 %
8R/26L 100°-280° 8 kt 0 %
13/31 142°-322° 5 kt 6 kt 67 %

逆风成分最大的方向会被突出显示,并用于横风计算。 这并不一定意味着这个方向在使用。

乌云

1.800 ft FEW 几云
7.000 ft FEW 几云

温度 & 天气

温度 -2 °C
露点 -5 °C
相对湿度 80%
风寒 -9 °C
Kp-index 0 (0-9)

评论

SLP228海平面压力为30,20 inHg (30,20 inHg)
SC1AC1 SC TR AC TR

白天

日出
07:50 (9:35)
中午
12:03
日落
16:15

小工具

你想在你的网站上有一个关于溫哥華國際機場的当前航空天气(METAR)的小部件吗?

显示HTML代码

我们和第三方通过cookies跟踪您在我们网站上的互联网行为。如果你继续,我们认为你同意我们的饼干政策